Time;durP1;ratioP1;P1;durP2;ratioP2;P2;SDS_P1;SDS_P2;PMS_P1;PMS_P2;Temp;Humidity;BMP_temperature;BMP_pressure;BME280_temperature;BME280_humidity;BME280_pressure;Samples;Min_cycle;Max_cycle;Signal;HPM_P1;HPM_P2
2023/07/31 00:01:49;;;;;;;1.48;0.98;;;19.70;74.10;;;;;;5076448;28;20349;-70
2023/07/31 00:04:15;;;;;;;0.88;0.60;;;19.70;74.10;;;;;;5082915;28;20032;-68
2023/07/31 00:06:41;;;;;;;1.77;0.65;;;19.70;74.20;;;;;;5078386;28;20713;-69
2023/07/31 00:09:07;;;;;;;1.02;0.70;;;19.60;74.10;;;;;;5068040;28;20032;-72
2023/07/31 00:11:33;;;;;;;1.52;0.77;;;19.60;74.20;;;;;;5084530;28;20043;-68
2023/07/31 00:13:59;;;;;;;1.63;1.02;;;19.60;74.20;;;;;;5080251;28;20024;-71
2023/07/31 00:16:25;;;;;;;1.90;0.90;;;19.60;74.20;;;;;;5077981;28;20476;-69
2023/07/31 00:18:51;;;;;;;1.33;0.60;;;19.60;74.30;;;;;;5081508;28;20031;-67
2023/07/31 00:21:17;;;;;;;0.57;0.50;;;19.60;74.30;;;;;;5083180;28;20414;-67
2023/07/31 00:23:43;;;;;;;1.42;0.77;;;19.60;74.40;;;;;;5077473;28;20646;-67
2023/07/31 00:26:09;;;;;;;0.80;0.80;;;19.60;74.40;;;;;;5083938;28;20048;-68
2023/07/31 00:28:35;;;;;;;2.25;0.68;;;19.60;74.50;;;;;;5066408;28;20047;-67
2023/07/31 00:31:03;;;;;;;1.50;0.98;;;19.60;74.60;;;;;;5083546;28;20069;-66
2023/07/31 00:33:31;;;;;;;2.70;0.95;;;19.60;74.70;;;;;;5079392;28;20027;-66
2023/07/31 00:35:57;;;;;;;1.00;0.70;;;19.60;74.70;;;;;;5078474;28;20039;-70
2023/07/31 00:38:25;;;;;;;3.08;0.90;;;19.60;74.70;;;;;;5080947;28;20123;-69
2023/07/31 00:40:51;;;;;;;1.35;0.60;;;19.60;74.80;;;;;;5083759;28;20143;-68
2023/07/31 00:43:18;;;;;;;1.13;0.73;;;19.60;74.90;;;;;;5079549;28;20047;-70
2023/07/31 00:45:44;;;;;;;4.40;0.70;;;19.60;74.90;;;;;;5073809;28;20843;-70
2023/07/31 00:48:11;;;;;;;1.83;0.60;;;19.60;75.00;;;;;;5079754;28;20048;-67
2023/07/31 00:50:38;;;;;;;1.92;0.70;;;19.60;75.00;;;;;;5080583;28;20032;-67
2023/07/31 00:53:04;;;;;;;1.30;0.60;;;19.60;75.00;;;;;;5079182;28;20050;-67
2023/07/31 00:55:33;;;;;;;1.65;0.73;;;19.60;75.10;;;;;;5082820;28;20036;-69
2023/07/31 00:58:00;;;;;;;0.82;0.63;;;19.60;75.20;;;;;;5085796;28;20497;-67
2023/07/31 01:00:26;;;;;;;2.05;0.80;;;19.60;75.20;;;;;;5079446;28;20032;-66
2023/07/31 01:02:52;;;;;;;2.45;0.60;;;19.60;75.20;;;;;;5078434;28;20676;-67
2023/07/31 01:05:29;;;;;;;1.17;0.73;;;19.60;75.30;;;;;;5080034;28;20097;-69
2023/07/31 01:08:08;;;;;;;1.10;0.70;;;19.60;75.40;;;;;;5083778;28;20046;-67
2023/07/31 01:10:52;;;;;;;2.17;0.70;;;19.60;75.30;;;;;;5076462;28;20056;-70
2023/07/31 01:13:19;;;;;;;2.72;0.77;;;19.50;75.30;;;;;;5078456;28;20486;-69
2023/07/31 01:15:45;;;;;;;1.40;0.65;;;19.60;75.40;;;;;;5080264;28;20125;-69
2023/07/31 01:18:11;;;;;;;1.38;0.70;;;19.50;75.30;;;;;;5081113;28;20035;-67
2023/07/31 01:20:39;;;;;;;1.85;0.95;;;19.50;75.30;;;;;;5080433;28;20082;-68
2023/07/31 01:23:27;;;;;;;1.60;0.88;;;19.50;75.40;;;;;;5087203;28;20117;-68
2023/07/31 01:26:03;;;;;;;1.17;0.80;;;19.50;75.60;;;;;;5079193;28;20043;-70
2023/07/31 01:28:45;;;;;;;2.35;0.70;;;19.50;76.10;;;;;;5078315;28;20040;-67
2023/07/31 01:31:16;;;;;;;0.95;0.70;;;19.50;75.70;;;;;;5081104;28;20222;-67
2023/07/31 01:33:42;;;;;;;1.33;0.70;;;19.50;75.70;;;;;;5078129;28;20063;-67
2023/07/31 01:36:09;;;;;;;0.68;0.57;;;19.50;75.70;;;;;;5079563;28;20024;-67
2023/07/31 01:38:35;;;;;;;2.05;0.85;;;19.50;75.70;;;;;;5092936;28;20384;-67
2023/07/31 01:41:01;;;;;;;0.68;0.68;;;19.50;75.80;;;;;;5081979;28;20025;-67
2023/07/31 01:43:27;;;;;;;0.70;0.60;;;19.50;75.80;;;;;;5077634;28;20511;-70
2023/07/31 01:45:53;;;;;;;1.00;0.70;;;19.50;75.90;;;;;;5081252;28;20157;-67
2023/07/31 01:48:19;;;;;;;1.38;0.70;;;19.50;76.00;;;;;;5083423;28;20361;-69
2023/07/31 01:50:45;;;;;;;1.17;0.60;;;19.50;76.00;;;;;;5076305;28;20186;-71
2023/07/31 01:53:13;;;;;;;1.02;0.50;;;19.50;76.10;;;;;;5086368;28;20036;-71
2023/07/31 01:55:39;;;;;;;2.22;0.70;;;19.50;76.10;;;;;;5083004;28;20024;-66
2023/07/31 01:58:04;;;;;;;1.30;0.80;;;19.50;76.10;;;;;;5082839;28;20032;-70
2023/07/31 02:00:30;;;;;;;1.60;0.65;;;19.40;76.00;;;;;;5082342;28;20107;-71
2023/07/31 02:02:56;;;;;;;1.20;0.70;;;19.50;76.20;;;;;;5083780;28;20040;-69
2023/07/31 02:05:23;;;;;;;2.10;0.70;;;19.50;76.30;;;;;;5073982;28;20020;-72
2023/07/31 02:07:49;;;;;;;3.28;0.93;;;19.50;76.40;;;;;;5071748;28;20044;-70
2023/07/31 02:10:15;;;;;;;3.42;1.50;;;19.50;76.50;;;;;;5073564;28;20020;-70
2023/07/31 02:12:41;;;;;;;5.03;1.52;;;19.50;76.50;;;;;;5084338;28;20127;-70
2023/07/31 02:15:07;;;;;;;9.85;2.33;;;19.50;76.60;;;;;;5089106;28;20715;-69
2023/07/31 02:17:33;;;;;;;4.88;1.60;;;19.50;76.70;;;;;;5086475;28;20046;-69
2023/07/31 02:20:00;;;;;;;5.30;1.75;;;19.50;76.70;;;;;;5088746;28;20664;-70
2023/07/31 02:22:26;;;;;;;3.97;1.70;;;19.50;76.80;;;;;;5090121;28;20031;-68
2023/07/31 02:24:52;;;;;;;7.15;2.83;;;19.50;76.80;;;;;;5090208;28;20089;-67
2023/07/31 02:27:24;;;;;;;5.88;2.60;;;19.50;76.90;;;;;;5087551;28;20067;-67
2023/07/31 02:29:50;;;;;;;5.30;2.03;;;19.50;76.90;;;;;;5089590;28;20046;-69
2023/07/31 02:32:16;;;;;;;7.38;3.03;;;19.50;77.00;;;;;;5084627;28;20028;-66
2023/07/31 02:34:42;;;;;;;8.80;2.75;;;19.50;77.00;;;;;;5095465;28;20079;-66
2023/07/31 02:37:08;;;;;;;8.05;3.03;;;19.50;77.10;;;;;;5084612;28;20074;-69
2023/07/31 02:39:33;;;;;;;9.15;3.22;;;19.50;77.10;;;;;;5089236;28;20059;-72
2023/07/31 02:42:00;;;;;;;8.82;2.83;;;19.50;77.20;;;;;;5082334;28;20040;-71
2023/07/31 02:44:26;;;;;;;8.40;2.20;;;19.50;77.30;;;;;;5082644;28;20093;-68
2023/07/31 02:46:53;;;;;;;8.85;2.63;;;19.50;77.30;;;;;;5086746;28;20036;-71
2023/07/31 02:49:20;;;;;;;10.80;2.53;;;19.50;77.30;;;;;;5075202;28;20059;-72
2023/07/31 02:51:46;;;;;;;7.75;3.20;;;19.50;77.40;;;;;;5086253;28;20042;-68
2023/07/31 02:54:12;;;;;;;7.85;2.42;;;19.50;77.40;;;;;;5084698;28;20142;-72
2023/07/31 02:56:38;;;;;;;7.57;2.90;;;19.50;77.60;;;;;;5078131;28;20058;-69
2023/07/31 02:59:04;;;;;;;4.82;1.88;;;19.50;77.40;;;;;;5085062;28;20020;-70
2023/07/31 03:01:31;;;;;;;8.93;3.63;;;19.50;77.40;;;;;;5085830;28;20097;-68
2023/07/31 03:03:57;;;;;;;6.28;2.28;;;19.50;77.50;;;;;;5083540;28;20034;-67
2023/07/31 03:06:23;;;;;;;8.20;3.30;;;19.50;77.50;;;;;;5080927;28;20028;-68
2023/07/31 03:08:49;;;;;;;8.13;3.05;;;19.50;78.00;;;;;;5069765;28;20036;-69
2023/07/31 03:11:15;;;;;;;8.00;2.60;;;19.50;77.50;;;;;;5074758;28;20024;-70
2023/07/31 03:13:41;;;;;;;7.70;2.70;;;19.50;77.60;;;;;;5086690;28;20048;-72
2023/07/31 03:16:07;;;;;;;8.60;3.60;;;19.50;77.60;;;;;;5067471;28;20032;-66
2023/07/31 03:18:33;;;;;;;8.63;3.60;;;19.50;77.60;;;;;;5081483;28;20051;-68
2023/07/31 03:20:59;;;;;;;8.00;3.10;;;19.50;77.70;;;;;;5083715;28;20108;-66
2023/07/31 03:23:25;;;;;;;8.73;3.33;;;19.50;77.70;;;;;;5086229;28;20140;-66
2023/07/31 03:25:58;;;;;;;10.70;4.10;;;19.50;77.80;;;;;;5081394;28;20089;-67
2023/07/31 03:28:27;;;;;;;11.45;3.80;;;19.50;77.80;;;;;;5082944;28;20052;-67
2023/07/31 03:30:53;;;;;;;9.32;3.38;;;19.50;77.80;;;;;;5081409;28;20145;-70
2023/07/31 03:33:19;;;;;;;8.38;3.80;;;19.50;77.80;;;;;;5076060;28;20060;-71
2023/07/31 03:35:46;;;;;;;10.05;3.28;;;19.50;77.90;;;;;;5084982;28;20096;-67
2023/07/31 03:38:11;;;;;;;12.45;4.05;;;19.50;77.90;;;;;;5083539;28;20572;-69
2023/07/31 03:40:37;;;;;;;12.38;4.22;;;19.50;77.90;;;;;;5082121;28;20032;-70
2023/07/31 03:43:03;;;;;;;11.25;3.75;;;19.40;77.80;;;;;;5080075;28;20109;-67
2023/07/31 03:45:29;;;;;;;8.43;3.47;;;19.40;77.80;;;;;;5080635;28;20078;-76
2023/07/31 03:47:55;;;;;;;11.18;5.20;;;19.40;77.80;;;;;;5091845;28;20038;-69
2023/07/31 03:50:24;;;;;;;9.00;4.80;;;19.40;77.80;;;;;;5080977;28;20042;-68
2023/07/31 03:52:51;;;;;;;9.63;4.05;;;19.40;77.80;;;;;;5088367;28;20047;-70
2023/07/31 03:55:17;;;;;;;7.22;3.70;;;19.40;77.80;;;;;;5088732;28;20034;-69
2023/07/31 03:57:43;;;;;;;9.00;4.55;;;19.40;77.80;;;;;;5087430;28;20047;-72
2023/07/31 04:00:10;;;;;;;10.65;4.88;;;19.40;77.80;;;;;;5091140;28;20028;-71
2023/07/31 04:02:41;;;;;;;10.95;4.22;;;19.40;77.80;;;;;;5082799;28;20060;-69
2023/07/31 04:05:07;;;;;;;11.00;4.53;;;19.40;77.80;;;;;;5088039;28;20023;-73
2023/07/31 04:07:34;;;;;;;8.02;4.57;;;19.40;77.80;;;;;;5082267;28;20035;-68
2023/07/31 04:10:00;;;;;;;7.35;4.90;;;19.30;77.60;;;;;;5085315;28;20028;-71
2023/07/31 04:12:26;;;;;;;9.70;5.15;;;19.30;77.60;;;;;;5092514;28;20126;-67
2023/07/31 04:14:52;;;;;;;8.88;4.47;;;19.30;78.20;;;;;;5085271;28;20115;-72
2023/07/31 04:17:18;;;;;;;11.90;5.20;;;19.30;77.70;;;;;;5093843;28;20080;-69
2023/07/31 04:19:44;;;;;;;9.65;4.90;;;19.30;77.70;;;;;;5089885;28;20040;-69
2023/07/31 04:22:10;;;;;;;9.88;4.97;;;19.30;77.70;;;;;;5087726;28;20088;-69
2023/07/31 04:24:36;;;;;;;9.82;5.32;;;19.30;77.70;;;;;;5096206;28;20545;-68
2023/07/31 04:27:02;;;;;;;13.18;5.55;;;19.30;78.30;;;;;;5093401;28;20066;-67
2023/07/31 04:29:28;;;;;;;11.02;5.78;;;19.30;77.80;;;;;;5088424;28;20032;-68
2023/07/31 04:31:54;;;;;;;10.18;5.00;;;19.30;77.90;;;;;;5088052;28;20032;-69
2023/07/31 04:34:20;;;;;;;7.75;5.82;;;19.30;77.80;;;;;;5080503;28;20050;-69
2023/07/31 04:36:46;;;;;;;8.13;5.80;;;19.20;77.70;;;;;;5090005;28;20066;-72
2023/07/31 04:39:11;;;;;;;12.85;5.90;;;19.20;77.70;;;;;;5078967;28;20501;-68
2023/07/31 04:41:37;;;;;;;12.13;6.75;;;19.20;77.70;;;;;;5091721;28;20054;-69
2023/07/31 04:44:03;;;;;;;10.88;6.10;;;19.20;77.80;;;;;;5081788;28;20443;-70
2023/07/31 04:46:30;;;;;;;11.00;6.13;;;19.20;77.80;;;;;;5080265;28;20063;-77
2023/07/31 04:48:56;;;;;;;10.35;5.22;;;19.20;77.80;;;;;;5081736;28;20070;-69
2023/07/31 04:51:23;;;;;;;10.27;5.88;;;19.20;77.90;;;;;;5093403;28;20085;-67
2023/07/31 04:53:49;;;;;;;10.32;5.70;;;19.20;77.90;;;;;;5092926;28;20028;-69
2023/07/31 04:56:16;;;;;;;11.35;5.88;;;19.20;77.80;;;;;;5092617;28;20032;-72
2023/07/31 04:58:41;;;;;;;8.35;4.80;;;19.20;77.90;;;;;;5091072;28;20118;-67
2023/07/31 05:01:07;;;;;;;12.52;6.50;;;19.20;77.80;;;;;;5090314;28;20057;-69
2023/07/31 05:03:33;;;;;;;9.88;5.43;;;19.20;77.80;;;;;;5089922;28;20511;-73
2023/07/31 05:05:59;;;;;;;11.75;5.85;;;19.20;77.90;;;;;;5086428;28;20052;-72
2023/07/31 05:08:25;;;;;;;11.15;6.10;;;19.20;77.80;;;;;;5069015;28;20533;-71
2023/07/31 05:10:52;;;;;;;9.48;5.60;;;19.20;77.80;;;;;;5078385;28;20027;-67
2023/07/31 05:13:17;;;;;;;11.35;6.10;;;19.20;77.80;;;;;;5086172;28;20090;-70
2023/07/31 05:15:43;;;;;;;10.13;5.72;;;19.20;77.80;;;;;;5083344;28;20888;-67
2023/07/31 05:18:09;;;;;;;12.40;6.28;;;19.20;77.80;;;;;;5076545;28;20047;-67
2023/07/31 05:20:35;;;;;;;11.40;6.10;;;19.20;77.80;;;;;;5089090;28;20027;-67
2023/07/31 05:23:01;;;;;;;11.25;5.63;;;19.20;77.80;;;;;;5092495;28;20812;-70
2023/07/31 05:25:27;;;;;;;10.43;4.63;;;19.20;77.80;;;;;;5088894;28;20036;-66
2023/07/31 05:27:53;;;;;;;10.10;4.50;;;19.20;78.00;;;;;;5086349;28;20085;-68
2023/07/31 05:30:19;;;;;;;7.70;3.85;;;19.30;78.70;;;;;;5092388;28;20731;-73
2023/07/31 05:32:45;;;;;;;9.98;4.80;;;19.30;79.00;;;;;;5084818;28;20035;-67
2023/07/31 05:35:11;;;;;;;10.40;5.20;;;19.40;79.60;;;;;;5085190;28;20059;-66
2023/07/31 05:37:37;;;;;;;7.95;4.53;;;19.50;80.10;;;;;;5080212;28;20047;-67
2023/07/31 05:40:03;;;;;;;7.90;4.00;;;19.60;80.50;;;;;;5089262;28;20032;-68
2023/07/31 05:42:29;;;;;;;12.18;4.55;;;19.60;80.60;;;;;;5088089;28;20032;-67
2023/07/31 05:44:55;;;;;;;7.63;4.78;;;19.70;81.00;;;;;;5079561;28;20028;-69
2023/07/31 05:47:21;;;;;;;10.38;5.22;;;19.80;81.20;;;;;;5077455;28;20075;-67
2023/07/31 05:49:48;;;;;;;11.48;5.10;;;19.80;81.20;;;;;;5078932;28;20028;-69
2023/07/31 05:52:13;;;;;;;11.40;4.97;;;19.90;81.50;;;;;;5077456;28;20055;-69
2023/07/31 05:54:39;;;;;;;7.93;4.10;;;19.90;81.40;;;;;;5083742;28;20107;-73
2023/07/31 05:57:05;;;;;;;10.57;5.07;;;20.00;81.60;;;;;;5078542;28;20027;-66
2023/07/31 05:59:32;;;;;;;6.85;4.50;;;20.10;81.70;;;;;;5078640;28;20031;-67
2023/07/31 06:01:59;;;;;;;7.03;4.88;;;20.10;81.50;;;;;;5076875;28;20027;-74
2023/07/31 06:04:25;;;;;;;9.45;4.25;;;20.20;81.90;;;;;;5078602;28;20032;-77
2023/07/31 06:06:51;;;;;;;9.43;5.00;;;20.30;81.30;;;;;;5072530;28;20043;-74
2023/07/31 06:09:17;;;;;;;8.35;4.57;;;20.30;81.10;;;;;;5070178;28;20067;-67
2023/07/31 06:11:43;;;;;;;8.70;4.05;;;20.40;81.00;;;;;;5074299;28;20063;-67
2023/07/31 06:14:09;;;;;;;6.50;4.05;;;20.40;80.90;;;;;;5077680;28;20044;-68
2023/07/31 06:16:35;;;;;;;11.15;5.13;;;20.50;80.70;;;;;;5077623;28;20498;-67
2023/07/31 06:19:01;;;;;;;6.47;3.88;;;20.50;80.50;;;;;;5076205;28;20114;-69
2023/07/31 06:21:27;;;;;;;8.45;4.70;;;20.40;80.20;;;;;;5078338;28;20028;-67
2023/07/31 06:23:53;;;;;;;7.03;3.85;;;20.40;80.10;;;;;;5083027;28;20043;-67
2023/07/31 06:26:20;;;;;;;7.80;4.10;;;20.40;80.00;;;;;;5078441;28;20032;-69
2023/07/31 06:28:46;;;;;;;4.85;3.03;;;20.40;79.90;;;;;;5076611;28;20378;-76
2023/07/31 06:31:12;;;;;;;10.32;4.90;;;20.40;79.80;;;;;;5078973;28;20640;-73
2023/07/31 06:33:38;;;;;;;5.28;3.67;;;20.40;79.70;;;;;;5076508;28;20028;-72
2023/07/31 06:36:04;;;;;;;8.23;4.35;;;20.40;79.50;;;;;;5089306;28;20035;-74
2023/07/31 06:38:30;;;;;;;6.13;3.55;;;20.30;79.20;;;;;;5073369;28;20032;-67
2023/07/31 06:40:56;;;;;;;7.95;4.20;;;20.40;79.20;;;;;;5088074;28;20036;-72
2023/07/31 06:43:22;;;;;;;8.02;3.30;;;20.40;79.00;;;;;;5074072;28;20036;-73
2023/07/31 06:45:51;;;;;;;9.82;4.47;;;20.40;78.80;;;;;;5076124;28;20031;-78
2023/07/31 06:48:16;;;;;;;5.25;2.78;;;20.50;78.80;;;;;;5081181;28;20601;-70
2023/07/31 06:50:42;;;;;;;5.28;2.85;;;20.50;78.50;;;;;;5077179;28;20562;-71
2023/07/31 06:53:08;;;;;;;7.03;3.50;;;20.60;78.40;;;;;;5086691;28;20066;-67
2023/07/31 06:55:34;;;;;;;6.88;3.05;;;20.70;78.30;;;;;;5086541;28;20040;-68
2023/07/31 06:58:00;;;;;;;7.55;3.50;;;20.80;78.10;;;;;;5087627;28;20047;-73
2023/07/31 07:00:27;;;;;;;7.30;3.85;;;20.90;78.00;;;;;;5094369;28;20051;-67
2023/07/31 07:02:53;;;;;;;6.85;3.78;;;21.00;77.80;;;;;;5091996;28;20036;-69
2023/07/31 07:05:19;;;;;;;7.57;3.40;;;21.10;77.60;;;;;;5082476;28;20100;-67
2023/07/31 07:07:45;;;;;;;8.73;3.50;;;21.10;77.30;;;;;;5076589;28;20473;-67
2023/07/31 07:10:11;;;;;;;8.80;3.70;;;21.20;77.20;;;;;;5080421;28;20038;-70
2023/07/31 07:12:37;;;;;;;6.22;3.40;;;21.30;77.10;;;;;;5078910;28;20451;-66
2023/07/31 07:15:03;;;;;;;6.57;2.67;;;21.30;76.90;;;;;;5084938;28;20528;-68
2023/07/31 07:17:33;;;;;;;5.03;2.97;;;21.40;76.80;;;;;;5078337;28;20035;-71
2023/07/31 07:20:00;;;;;;;5.95;3.03;;;21.40;76.60;;;;;;5078990;28;20112;-68
2023/07/31 07:22:27;;;;;;;7.88;3.25;;;21.40;77.00;;;;;;5084986;28;20127;-68
2023/07/31 07:24:53;;;;;;;5.25;3.17;;;21.40;76.30;;;;;;5079841;28;20180;-67
2023/07/31 07:27:19;;;;;;;4.07;2.53;;;21.40;76.20;;;;;;5079816;28;20040;-68
2023/07/31 07:29:46;;;;;;;6.22;2.53;;;21.50;76.20;;;;;;5081428;28;20036;-68
2023/07/31 07:32:12;;;;;;;6.32;3.00;;;21.60;76.10;;;;;;5080842;28;20111;-67
2023/07/31 07:34:38;;;;;;;4.07;2.22;;;21.60;75.90;;;;;;5089124;28;20051;-67
2023/07/31 07:37:05;;;;;;;6.53;2.53;;;21.70;75.80;;;;;;5083794;28;20067;-66
2023/07/31 07:39:31;;;;;;;3.10;2.42;;;21.80;75.70;;;;;;5082953;28;20059;-67
2023/07/31 07:41:56;;;;;;;4.15;2.42;;;21.90;75.50;;;;;;5081067;28;20416;-70
2023/07/31 07:44:22;;;;;;;7.53;2.60;;;21.90;75.20;;;;;;5072345;28;20116;-68
2023/07/31 07:46:48;;;;;;;7.45;2.50;;;22.00;75.00;;;;;;5085088;28;20408;-67
2023/07/31 07:49:14;;;;;;;4.25;2.50;;;22.00;74.70;;;;;;5092424;28;20031;-70
2023/07/31 07:51:40;;;;;;;5.05;2.33;;;22.00;74.50;;;;;;5094202;28;20043;-69
2023/07/31 07:54:06;;;;;;;6.68;3.13;;;22.00;74.40;;;;;;5084008;28;20039;-72
2023/07/31 07:56:33;;;;;;;5.50;2.63;;;22.00;74.30;;;;;;5082757;28;20379;-73
2023/07/31 07:58:59;;;;;;;5.28;2.63;;;22.00;74.70;;;;;;5076611;28;20040;-70
2023/07/31 08:01:25;;;;;;;5.78;2.22;;;22.00;74.00;;;;;;5081172;28;20039;-67
2023/07/31 08:03:51;;;;;;;6.55;3.08;;;21.90;73.70;;;;;;5080292;28;20169;-69
2023/07/31 08:06:17;;;;;;;5.32;2.45;;;21.90;73.60;;;;;;5081351;28;20027;-68
2023/07/31 08:08:43;;;;;;;7.28;2.92;;;21.90;73.50;;;;;;5072759;28;20040;-73
2023/07/31 08:11:09;;;;;;;5.13;2.97;;;21.80;73.30;;;;;;5080080;28;20075;-70
2023/07/31 08:13:36;;;;;;;4.72;2.33;;;21.80;73.30;;;;;;5078850;28;20115;-66
2023/07/31 08:16:03;;;;;;;5.07;2.70;;;21.70;73.30;;;;;;5083925;28;20031;-78
2023/07/31 08:18:32;;;;;;;7.60;2.50;;;21.70;73.30;;;;;;5077031;28;20027;-68
2023/07/31 08:20:58;;;;;;;5.13;3.33;;;21.80;73.40;;;;;;5077819;28;20039;-70
2023/07/31 08:23:24;;;;;;;7.47;3.03;;;21.80;73.30;;;;;;5079728;28;20032;-72
2023/07/31 08:25:50;;;;;;;7.25;3.17;;;21.90;73.20;;;;;;5080790;28;20097;-67
2023/07/31 08:28:16;;;;;;;9.20;3.83;;;22.00;73.20;;;;;;5079621;28;20040;-70
2023/07/31 08:30:42;;;;;;;7.95;3.50;;;22.10;73.00;;;;;;5073636;28;20032;-71
2023/07/31 08:33:08;;;;;;;5.90;3.40;;;22.20;72.90;;;;;;5079255;28;20124;-71
2023/07/31 08:35:34;;;;;;;10.48;3.85;;;22.30;72.80;;;;;;5079445;28;20138;-67
2023/07/31 08:38:01;;;;;;;8.35;3.60;;;22.40;72.70;;;;;;5076908;28;20070;-74
2023/07/31 08:40:28;;;;;;;8.88;4.47;;;22.40;72.40;;;;;;5072395;28;20523;-69
2023/07/31 08:42:56;;;;;;;7.95;4.07;;;22.50;72.40;;;;;;5078417;28;20151;-66
2023/07/31 08:45:22;;;;;;;9.40;3.58;;;22.50;72.30;;;;;;5078149;28;20096;-67
2023/07/31 08:47:50;;;;;;;8.77;4.40;;;22.50;72.20;;;;;;5076530;28;20501;-67
2023/07/31 08:50:19;;;;;;;10.40;4.63;;;22.50;72.10;;;;;;5079125;28;20168;-66
2023/07/31 08:52:49;;;;;;;14.88;5.65;;;22.40;71.90;;;;;;5075853;28;20032;-67
2023/07/31 08:55:15;;;;;;;10.05;4.90;;;22.40;71.90;;;;;;5077755;28;20109;-67
2023/07/31 08:57:42;;;;;;;9.48;4.97;;;22.40;71.90;;;;;;5082411;28;20119;-67
2023/07/31 09:00:10;;;;;;;13.48;4.97;;;22.40;71.70;;;;;;5084011;28;20077;-67
2023/07/31 09:02:54;;;;;;;11.15;4.72;;;22.50;71.70;;;;;;5079870;28;20650;-72
2023/07/31 09:05:22;;;;;;;13.75;5.80;;;22.60;71.70;;;;;;5075945;28;20424;-68
2023/07/31 09:07:50;;;;;;;12.57;5.13;;;22.60;71.50;;;;;;5071987;28;20032;-68
2023/07/31 09:10:16;;;;;;;12.73;5.60;;;22.60;71.20;;;;;;5081282;28;20028;-67
2023/07/31 09:12:43;;;;;;;11.25;5.18;;;22.60;71.20;;;;;;5073496;28;20043;-67
2023/07/31 09:15:10;;;;;;;13.07;5.20;;;22.60;71.10;;;;;;5080602;28;20035;-67
2023/07/31 09:17:37;;;;;;;14.35;5.43;;;22.50;71.00;;;;;;5074740;28;20035;-67
2023/07/31 09:20:20;;;;;;;10.23;5.05;;;22.40;70.90;;;;;;5075928;28;20098;-71
2023/07/31 09:22:47;;;;;;;8.25;4.38;;;22.40;70.80;;;;;;5079863;28;20101;-66
2023/07/31 09:25:21;;;;;;;10.23;4.97;;;22.40;70.80;;;;;;5088136;27;20032;-66
2023/07/31 09:27:55;;;;;;;10.60;5.47;;;22.50;70.70;;;;;;5081354;28;20040;-69
2023/07/31 09:30:21;;;;;;;10.73;5.43;;;22.50;70.50;;;;;;5083388;28;20067;-67
2023/07/31 09:32:49;;;;;;;14.85;5.85;;;22.60;70.50;;;;;;5100043;28;20089;-66
2023/07/31 09:35:27;;;;;;;10.30;5.88;;;22.70;70.40;;;;;;5086307;28;20042;-67
2023/07/31 09:37:56;;;;;;;13.27;5.45;;;22.80;70.20;;;;;;5076244;28;20109;-67
2023/07/31 09:40:31;;;;;;;9.27;4.93;;;22.90;70.20;;;;;;5085047;28;20060;-71
2023/07/31 09:43:08;;;;;;;10.98;5.60;;;23.00;70.50;;;;;;5078948;28;20043;-71
2023/07/31 09:45:36;;;;;;;12.02;5.90;;;23.20;69.80;;;;;;5072708;28;20115;-69
2023/07/31 09:48:02;;;;;;;12.88;6.22;;;23.30;69.60;;;;;;5083423;28;20167;-73
2023/07/31 09:50:29;;;;;;;11.82;5.45;;;23.50;69.60;;;;;;5080032;28;20112;-77
2023/07/31 09:52:55;;;;;;;11.45;5.43;;;23.60;69.40;;;;;;5063405;28;20048;-71
2023/07/31 09:55:21;;;;;;;12.65;6.45;;;23.80;69.30;;;;;;5081178;28;20031;-73
2023/07/31 09:57:48;;;;;;;12.60;6.38;;;23.90;68.90;;;;;;5086483;28;20594;-70
2023/07/31 10:00:17;;;;;;;10.32;4.93;;;24.10;68.70;;;;;;5077889;28;20024;-68
2023/07/31 10:02:47;;;;;;;10.85;5.47;;;24.20;68.40;;;;;;5080108;28;20039;-76
2023/07/31 10:05:16;;;;;;;14.57;6.57;;;24.10;67.90;;;;;;5082719;28;20170;-71
2023/07/31 10:07:51;;;;;;;11.38;5.78;;;24.10;67.90;;;;;;5073982;28;20043;-68
2023/07/31 10:10:20;;;;;;;13.10;5.65;;;24.00;67.80;;;;;;5078224;28;20032;-72
2023/07/31 10:12:48;;;;;;;12.23;5.72;;;24.00;67.80;;;;;;5074152;28;20044;-67
2023/07/31 10:15:15;;;;;;;15.55;5.78;;;23.90;67.60;;;;;;5077064;28;20521;-68
2023/07/31 10:17:41;;;;;;;11.23;5.63;;;23.80;67.50;;;;;;5082835;28;20604;-68
2023/07/31 10:20:08;;;;;;;12.68;5.75;;;23.70;67.30;;;;;;5079596;28;20028;-68
2023/07/31 10:22:35;;;;;;;13.13;5.88;;;23.80;67.60;;;;;;5077332;28;20344;-68
2023/07/31 10:25:02;;;;;;;13.70;6.25;;;23.80;67.50;;;;;;5085067;28;20038;-69
2023/07/31 10:27:29;;;;;;;11.80;5.85;;;23.90;67.40;;;;;;5076570;28;20047;-73
2023/07/31 10:29:57;;;;;;;13.98;6.10;;;24.10;67.40;;;;;;5079478;28;20032;-67
2023/07/31 10:32:24;;;;;;;12.65;5.40;;;24.20;67.10;;;;;;5078043;28;20060;-67
2023/07/31 10:34:52;;;;;;;12.98;5.47;;;24.30;66.80;;;;;;5080795;28;20163;-67
2023/07/31 10:37:23;;;;;;;11.35;6.05;;;24.40;66.70;;;;;;5084899;28;20036;-69
2023/07/31 10:40:00;;;;;;;11.60;4.78;;;24.40;66.40;;;;;;5096607;28;20093;-67
2023/07/31 10:42:48;;;;;;;13.43;5.85;;;24.30;66.20;;;;;;5083952;28;20083;-67
2023/07/31 10:45:36;;;;;;;11.40;4.85;;;24.20;66.10;;;;;;5084076;28;20032;-67
2023/07/31 10:48:04;;;;;;;15.77;6.13;;;24.10;66.20;;;;;;5079456;28;20573;-71
2023/07/31 10:50:35;;;;;;;7.80;4.85;;;24.00;66.40;;;;;;5082828;28;20028;-69
2023/07/31 10:53:01;;;;;;;13.90;5.00;;;23.90;66.40;;;;;;5084483;28;20036;-75
2023/07/31 10:55:40;;;;;;;14.40;5.95;;;23.80;66.40;;;;;;5080081;28;20554;-73
2023/07/31 10:58:09;;;;;;;9.93;5.78;;;23.70;66.40;;;;;;5088779;28;20032;-71
2023/07/31 11:00:38;;;;;;;12.50;5.78;;;23.60;66.30;;;;;;5098291;28;20765;-69
2023/07/31 11:03:10;;;;;;;11.00;5.50;;;23.50;66.40;;;;;;5086253;28;20031;-68
2023/07/31 11:05:51;;;;;;;13.10;5.63;;;23.50;66.50;;;;;;5095055;27;20081;-74
2023/07/31 11:08:23;;;;;;;12.98;5.78;;;23.40;66.40;;;;;;5072494;28;20492;-74
2023/07/31 11:10:51;;;;;;;;;;;23.40;66.40;;;;;;5092968;28;20441;-74
2023/07/31 11:13:17;;;;;;;14.90;6.07;;;23.40;66.50;;;;;;5080362;28;20275;-71
2023/07/31 11:15:43;;;;;;;14.68;6.32;;;23.40;66.50;;;;;;5082787;28;20028;-73
2023/07/31 11:18:10;;;;;;;12.88;6.00;;;23.40;66.50;;;;;;5081050;28;20051;-68
2023/07/31 11:20:37;;;;;;;9.25;5.50;;;23.30;66.40;;;;;;5092583;28;20038;-74
2023/07/31 11:23:09;;;;;;;12.02;5.82;;;23.20;66.30;;;;;;5082273;28;20058;-67
2023/07/31 11:25:35;;;;;;;12.02;6.47;;;23.10;66.30;;;;;;5084373;28;20028;-72
2023/07/31 11:28:15;;;;;;;10.30;5.47;;;23.10;66.50;;;;;;5077809;28;20039;-69
2023/07/31 11:30:42;;;;;;;14.27;5.72;;;23.00;66.60;;;;;;5076574;28;20040;-75
2023/07/31 11:33:10;;;;;;;12.07;5.63;;;22.90;66.50;;;;;;5085662;28;20031;-71
2023/07/31 11:35:44;;;;;;;10.75;5.10;;;22.90;66.70;;;;;;5082934;28;20052;-76
2023/07/31 11:38:24;;;;;;;11.25;5.35;;;22.80;66.60;;;;;;5072039;28;20479;-72
2023/07/31 11:40:51;;;;;;;17.55;7.13;;;22.70;66.70;;;;;;5078097;28;20118;-73
2023/07/31 11:43:18;;;;;;;15.98;6.57;;;22.70;66.90;;;;;;5088920;28;20063;-72
2023/07/31 11:45:51;;;;;;;14.32;6.03;;;22.60;67.00;;;;;;5081232;28;20077;-71
2023/07/31 11:48:24;;;;;;;16.05;6.30;;;22.60;67.20;;;;;;5080625;28;20047;-68
2023/07/31 11:50:51;;;;;;;19.05;7.40;;;22.50;67.20;;;;;;5080232;28;20039;-67
2023/07/31 11:53:23;;;;;;;16.48;6.47;;;22.50;67.30;;;;;;5083220;28;20048;-68
2023/07/31 11:55:49;;;;;;;16.88;7.03;;;22.40;67.20;;;;;;5083418;28;20059;-68
2023/07/31 11:58:17;;;;;;;12.95;5.28;;;22.40;67.40;;;;;;5083162;28;20096;-67
2023/07/31 12:00:43;;;;;;;14.75;6.30;;;22.30;67.40;;;;;;5081818;28;20093;-67
2023/07/31 12:03:09;;;;;;;13.25;6.00;;;22.30;67.50;;;;;;5080574;28;20042;-68
2023/07/31 12:05:38;;;;;;;14.15;5.97;;;22.30;67.60;;;;;;5078362;28;20039;-73
2023/07/31 12:08:11;;;;;;;16.90;6.32;;;22.30;67.60;;;;;;5071432;28;20048;-67
2023/07/31 12:10:38;;;;;;;17.17;7.15;;;22.30;67.70;;;;;;5078368;28;20122;-72
2023/07/31 12:13:06;;;;;;;13.40;5.90;;;22.30;67.70;;;;;;5074071;28;20028;-67
2023/07/31 12:15:38;;;;;;;12.57;5.32;;;22.30;67.80;;;;;;5081795;28;20038;-67
2023/07/31 12:18:08;;;;;;;14.27;6.80;;;22.20;67.70;;;;;;5094254;28;20104;-68
2023/07/31 12:20:35;;;;;;;8.98;5.68;;;22.10;67.70;;;;;;5081311;28;20143;-69
2023/07/31 12:23:02;;;;;;;13.10;6.25;;;22.10;67.80;;;;;;5079753;28;20036;-69
2023/07/31 12:25:30;;;;;;;12.95;5.35;;;22.00;67.80;;;;;;5067989;28;20421;-67
2023/07/31 12:27:56;;;;;;;10.82;5.65;;;21.90;67.90;;;;;;5078642;28;20089;-67
2023/07/31 12:30:29;;;;;;;17.73;6.68;;;21.90;68.10;;;;;;5088594;28;20490;-74
2023/07/31 12:32:55;;;;;;;20.42;6.70;;;21.80;68.20;;;;;;5076426;28;20047;-71
2023/07/31 12:35:21;;;;;;;10.55;5.53;;;21.80;68.20;;;;;;5083362;28;20056;-70
2023/07/31 12:37:47;;;;;;;9.00;5.55;;;21.70;68.20;;;;;;5083217;28;20755;-72
2023/07/31 12:40:14;;;;;;;8.75;4.70;;;21.70;68.30;;;;;;5087171;28;20055;-71
2023/07/31 12:42:41;;;;;;;14.30;6.95;;;21.60;68.30;;;;;;5081307;28;20135;-68
2023/07/31 12:45:07;;;;;;;11.60;6.13;;;21.60;68.50;;;;;;5078565;28;20028;-69